Time;durP1;ratioP1;P1;durP2;ratioP2;P2;SDS_P1;SDS_P2;PMS_P1;PMS_P2;Temp;Humidity;BMP_temperature;BMP_pressure;BME280_temperature;BME280_humidity;BME280_pressure;Samples;Min_cycle;Max_cycle;Signal;HPM_P1;HPM_P2
2021/07/15 00:00:00;;;;;;;1.75;1.60;;;;;;;20.00;100.00;100354.91;4981567;28;20548;-79
2021/07/15 00:02:30;;;;;;;2.45;1.40;;;;;;;20.02;100.00;100347.09;4980656;28;20581;-79
2021/07/15 00:04:58;;;;;;;2.05;1.60;;;;;;;19.99;100.00;100356.03;4929694;28;20186;-79
2021/07/15 00:07:27;;;;;;;1.92;1.50;;;;;;;19.99;100.00;100347.75;4951162;28;20313;-79
2021/07/15 00:09:53;;;;;;;2.03;1.63;;;;;;;19.96;100.00;100345.66;4963202;28;20217;-79
2021/07/15 00:12:18;;;;;;;1.83;1.67;;;;;;;19.92;100.00;100344.75;4959243;28;20223;-79
2021/07/15 00:14:44;;;;;;;2.30;2.15;;;;;;;19.99;100.00;100347.75;4979899;28;20213;-78
2021/07/15 00:17:10;;;;;;;2.80;1.70;;;;;;;20.05;100.00;100340.88;4958963;28;20233;-78
2021/07/15 00:19:37;;;;;;;2.20;1.90;;;;;;;19.92;100.00;100342.00;4961378;28;20191;-79
2021/07/15 00:22:05;;;;;;;4.95;1.95;;;;;;;19.95;100.00;100351.56;4953780;28;20236;-79
2021/07/15 00:24:35;;;;;;;2.30;2.10;;;;;;;19.96;100.00;100342.91;4963042;28;20189;-78
2021/07/15 00:27:01;;;;;;;2.10;1.73;;;;;;;20.00;100.00;100337.53;4976997;28;20225;-78
2021/07/15 00:29:27;;;;;;;2.63;1.90;;;;;;;20.08;100.00;100343.75;4961307;28;20839;-79
2021/07/15 00:31:55;;;;;;;1.80;1.70;;;;;;;20.06;100.00;100342.50;4967163;28;20249;-78
2021/07/15 00:34:23;;;;;;;2.35;1.88;;;;;;;19.99;100.00;100347.75;4981548;28;20193;-78
2021/07/15 00:36:52;;;;;;;2.45;1.90;;;;;;;19.86;100.00;100348.88;4976376;28;20221;-78
2021/07/15 00:39:17;;;;;;;5.95;1.90;;;;;;;19.90;100.00;100349.78;4928622;28;20182;-78
2021/07/15 00:41:43;;;;;;;4.50;2.00;;;;;;;19.84;100.00;100345.66;4960352;28;20213;-78
2021/07/15 00:44:08;;;;;;;1.90;1.80;;;;;;;19.73;100.00;100349.94;4963567;28;20544;-78
2021/07/15 00:46:37;;;;;;;2.88;1.90;;;;;;;19.49;100.00;100362.84;4946874;28;20221;-80
2021/07/15 00:49:03;;;;;;;2.70;1.90;;;;;;;19.65;100.00;100368.53;4963166;28;20553;-78
2021/07/15 00:51:31;;;;;;;2.35;1.92;;;;;;;19.37;100.00;100361.97;4963551;28;20315;-79
2021/07/15 00:53:58;;;;;;;3.35;2.00;;;;;;;19.43;100.00;100366.94;4960562;28;20175;-79
2021/07/15 00:56:25;;;;;;;2.13;1.90;;;;;;;19.46;100.00;100365.47;4941747;28;20261;-78
2021/07/15 00:58:53;;;;;;;2.28;2.08;;;;;;;19.30;100.00;100375.47;4962840;28;20190;-78
2021/07/15 01:01:20;;;;;;;3.38;2.25;;;;;;;19.24;100.00;100368.56;4962472;28;20221;-78
2021/07/15 01:03:50;;;;;;;3.40;2.10;;;;;;;19.12;100.00;100371.25;4959268;28;20217;-79
2021/07/15 01:06:17;;;;;;;3.92;2.20;;;;;;;19.09;100.00;100376.63;4960069;28;20218;-79
2021/07/15 01:08:47;;;;;;;3.92;2.00;;;;;;;19.26;100.00;100387.50;4975667;28;20699;-78
2021/07/15 01:11:19;;;;;;;3.20;2.42;;;;;;;19.21;100.00;100379.44;4968304;28;20225;-78
2021/07/15 01:13:57;;;;;;;2.40;2.20;;;;;;;19.07;100.00;100382.44;4988878;28;20189;-79
2021/07/15 01:16:35;;;;;;;3.42;2.10;;;;;;;19.20;100.00;100389.66;4965688;28;20284;-80
2021/07/15 01:19:28;;;;;;;2.35;2.15;;;;;;;19.31;100.00;100390.88;4975596;28;20223;-78
2021/07/15 01:22:07;;;;;;;2.80;2.60;;;;;;;19.29;100.00;100395.91;4959730;28;20226;-80
2021/07/15 01:24:48;;;;;;;2.47;2.13;;;;;;;19.32;100.00;100397.97;4959690;28;20648;-79
2021/07/15 01:27:38;;;;;;;2.38;2.05;;;;;;;19.40;100.00;100403.44;4978927;28;20256;-78
2021/07/15 01:30:08;;;;;;;3.40;2.28;;;;;;;19.34;100.00;100402.03;4978885;28;20178;-78
2021/07/15 01:33:02;;;;;;;4.22;2.22;;;;;;;19.35;100.00;100413.84;4945718;28;20198;-78
2021/07/15 01:35:33;;;;;;;2.70;2.50;;;;;;;19.55;100.00;100424.06;4965522;28;20603;-78
2021/07/15 01:38:00;;;;;;;3.08;2.42;;;;;;;19.51;100.00;100429.44;4969470;28;20177;-77
2021/07/15 01:40:32;;;;;;;3.17;2.00;;;;;;;19.50;100.00;100432.53;4966067;28;20224;-79
2021/07/15 01:43:01;;;;;;;2.72;2.00;;;;;;;19.63;100.00;100431.44;4966133;28;20270;-78
2021/07/15 01:45:26;;;;;;;2.05;1.88;;;;;;;19.59;100.00;100436.03;4963190;28;20922;-79
2021/07/15 01:47:52;;;;;;;5.88;1.90;;;;;;;19.49;100.00;100430.94;4934530;28;20181;-79
2021/07/15 01:50:20;;;;;;;6.00;1.80;;;;;;;19.38;100.00;100430.50;4966094;28;20185;-78
2021/07/15 01:52:47;;;;;;;4.57;1.80;;;;;;;19.54;100.00;100427.94;4966837;28;20291;-78
2021/07/15 01:55:15;;;;;;;3.17;2.00;;;;;;;19.48;100.00;100430.09;4965809;28;20185;-78
2021/07/15 01:57:43;;;;;;;2.40;2.10;;;;;;;19.49;100.00;100436.44;4967557;28;20287;-79
2021/07/15 02:00:13;;;;;;;5.68;2.30;;;;;;;19.44;100.00;100423.66;4967046;28;20178;-78
2021/07/15 02:02:41;;;;;;;3.17;2.30;;;;;;;19.34;100.00;100417.75;4982092;28;20632;-79
2021/07/15 02:05:12;;;;;;;4.75;2.38;;;;;;;19.44;100.00;100420.09;4962640;28;20632;-78
2021/07/15 02:07:41;;;;;;;4.95;2.60;;;;;;;19.62;100.00;100414.13;4932501;28;20186;-78
2021/07/15 02:10:08;;;;;;;4.15;2.88;;;;;;;19.39;100.00;100399.03;4965799;28;20192;-78
2021/07/15 02:12:41;;;;;;;3.15;2.63;;;;;;;19.43;100.00;100388.16;4973890;28;20201;-78
2021/07/15 02:15:12;;;;;;;3.28;2.65;;;;;;;19.41;100.00;100388.53;4967211;28;20213;-78
2021/07/15 02:17:40;;;;;;;4.68;2.55;;;;;;;19.39;100.00;100387.22;4967120;28;20286;-78
2021/07/15 02:20:16;;;;;;;3.28;2.80;;;;;;;19.51;100.00;100390.06;4962193;28;20194;-79
2021/07/15 02:22:41;;;;;;;3.03;2.58;;;;;;;19.72;100.00;100392.47;4948723;28;20245;-79
2021/07/15 02:25:07;;;;;;;2.95;2.75;;;;;;;19.76;100.00;100403.59;4960937;28;20201;-78
2021/07/15 02:27:33;;;;;;;3.65;2.78;;;;;;;19.74;100.00;100398.44;4966339;28;20220;-78
2021/07/15 02:29:59;;;;;;;2.88;2.67;;;;;;;19.53;100.00;100402.34;4953148;28;20197;-79
2021/07/15 02:32:24;;;;;;;3.88;2.80;;;;;;;19.63;100.00;100392.88;4980667;28;20236;-78
2021/07/15 02:35:01;;;;;;;3.90;2.45;;;;;;;19.87;100.00;100405.66;4981178;28;20186;-78
2021/07/15 02:37:29;;;;;;;4.47;2.47;;;;;;;19.76;100.00;100418.22;4949758;28;20725;-78
2021/07/15 02:39:54;;;;;;;5.28;2.90;;;;;;;19.95;100.00;100423.25;4960314;28;20194;-78
2021/07/15 02:42:20;;;;;;;4.63;2.78;;;;;;;19.77;100.00;100425.31;4960601;28;20281;-78
2021/07/15 02:44:45;;;;;;;2.90;2.38;;;;;;;19.78;100.00;100429.69;4956993;28;20190;-78
2021/07/15 02:47:13;;;;;;;3.47;2.63;;;;;;;19.74;100.00;100433.44;4964504;28;20748;-78
2021/07/15 02:49:41;;;;;;;5.47;2.70;;;;;;;19.83;100.00;100423.19;4980776;28;20655;-78
2021/07/15 02:52:07;;;;;;;2.83;2.42;;;;;;;19.65;100.00;100426.41;4980013;28;20232;-79
2021/07/15 02:54:34;;;;;;;2.83;2.50;;;;;;;19.66;100.00;100424.13;4980753;28;20226;-78
2021/07/15 02:57:22;;;;;;;3.13;2.40;;;;;;;19.76;100.00;100423.72;4948163;28;20229;-78
2021/07/15 02:59:52;;;;;;;2.72;2.53;;;;;;;19.76;100.00;100423.72;4982937;28;20564;-78
2021/07/15 03:02:27;;;;;;;2.35;2.15;;;;;;;19.86;100.00;100419.78;4980895;28;20229;-78
2021/07/15 03:05:04;;;;;;;3.10;2.65;;;;;;;20.03;100.00;100425.91;4977069;28;20213;-79
2021/07/15 03:07:32;;;;;;;6.82;2.75;;;;;;;19.99;100.00;100430.50;4976280;28;20214;-78
2021/07/15 03:09:57;;;;;;;4.15;2.70;;;;;;;19.71;100.00;100423.91;4960855;28;20285;-78
2021/07/15 03:12:25;;;;;;;6.25;2.70;;;;;;;19.71;100.00;100423.91;4970201;28;20224;-78
2021/07/15 03:14:55;;;;;;;3.95;2.60;;;;;;;19.78;100.00;100417.88;4953449;28;20190;-79
2021/07/15 03:17:29;;;;;;;4.43;3.13;;;;;;;19.67;100.00;100428.50;4964821;28;20256;-77
2021/07/15 03:19:55;;;;;;;3.42;2.63;;;;;;;19.83;100.00;100415.72;4957692;28;20194;-79
2021/07/15 03:22:21;;;;;;;4.88;3.00;;;;;;;19.72;100.00;100414.53;4963200;28;20227;-79
2021/07/15 03:25:01;;;;;;;3.97;2.60;;;;;;;19.78;100.00;100407.66;4963795;28;20177;-79
2021/07/15 03:27:28;;;;;;;2.78;2.15;;;;;;;19.63;100.00;100420.44;4949113;28;20316;-78
2021/07/15 03:29:58;;;;;;;3.63;2.53;;;;;;;19.57;100.00;100424.53;4964315;28;20170;-79
2021/07/15 03:32:24;;;;;;;2.95;2.30;;;;;;;19.69;100.00;100426.22;4964039;28;20225;-78
2021/07/15 03:34:51;;;;;;;2.88;2.40;;;;;;;19.49;100.00;100419.91;4960890;28;20556;-78
2021/07/15 03:37:19;;;;;;;3.70;2.80;;;;;;;19.60;100.00;100416.41;4944588;28;21108;-78
2021/07/15 03:39:46;;;;;;;2.95;2.72;;;;;;;19.37;100.00;100406.03;4963539;28;20260;-71
2021/07/15 03:42:15;;;;;;;3.65;2.95;;;;;;;19.42;100.00;100414.13;4970819;28;20286;-79
2021/07/15 03:44:43;;;;;;;3.05;2.75;;;;;;;19.52;100.00;100413.69;4978464;28;20252;-77
2021/07/15 03:47:09;;;;;;;3.83;2.95;;;;;;;19.42;100.00;100408.59;4962972;28;20217;-78
2021/07/15 03:49:34;;;;;;;4.78;3.00;;;;;;;19.37;100.00;100419.81;4979760;28;20197;-78
2021/07/15 03:52:00;;;;;;;3.63;2.97;;;;;;;19.47;100.00;100422.19;4958879;28;20242;-79
2021/07/15 03:54:28;;;;;;;3.17;2.88;;;;;;;19.59;100.00;100428.56;4946146;28;20655;-78
2021/07/15 03:57:01;;;;;;;3.22;2.90;;;;;;;19.72;100.00;100425.53;4964520;28;20248;-79
2021/07/15 03:59:27;;;;;;;5.05;2.90;;;;;;;19.77;100.00;100436.34;4962017;28;20194;-77
2021/07/15 04:02:07;;;;;;;4.10;2.92;;;;;;;19.80;100.00;100440.41;4962706;28;20225;-79
2021/07/15 04:04:35;;;;;;;3.53;3.05;;;;;;;19.72;100.00;100438.50;4961864;28;20185;-79
2021/07/15 04:07:02;;;;;;;3.13;2.85;;;;;;;19.56;100.00;100442.19;4962675;28;20231;-78
2021/07/15 04:09:33;;;;;;;5.00;3.15;;;;;;;19.66;100.00;100442.59;4946255;28;20189;-78
2021/07/15 04:11:59;;;;;;;5.78;3.28;;;;;;;19.74;100.00;100438.97;4951282;28;20715;-78
2021/07/15 04:14:36;;;;;;;3.13;2.90;;;;;;;19.65;100.00;100451.22;4975809;28;20224;-79
2021/07/15 04:17:08;;;;;;;3.20;2.90;;;;;;;19.78;100.00;100446.25;4964418;28;20293;-78
2021/07/15 04:19:34;;;;;;;3.53;3.20;;;;;;;19.99;100.00;100451.75;4962272;28;20213;-77
2021/07/15 04:22:04;;;;;;;6.60;2.90;;;;;;;20.02;100.00;100457.41;4958908;28;20226;-78
2021/07/15 04:24:33;;;;;;;3.97;3.00;;;;;;;19.89;100.00;100453.00;4959427;28;20182;-79
2021/07/15 04:27:01;;;;;;;3.05;2.80;;;;;;;19.85;100.00;100460.34;4959410;28;20236;-79
2021/07/15 04:29:27;;;;;;;3.05;2.75;;;;;;;20.07;100.00;100454.41;4962435;28;20575;-78
2021/07/15 04:32:14;;;;;;;3.08;2.80;;;;;;;20.10;100.00;100457.31;4959050;28;20226;-78
2021/07/15 04:34:40;;;;;;;3.88;2.67;;;;;;;20.07;100.00;100466.28;4962118;28;20734;-78
2021/07/15 04:37:08;;;;;;;5.53;2.95;;;;;;;20.04;100.00;100470.88;4990126;28;20233;-78
2021/07/15 04:39:33;;;;;;;5.07;2.90;;;;;;;20.03;100.00;100464.53;4960929;28;20209;-77
2021/07/15 04:42:03;;;;;;;3.30;3.00;;;;;;;19.85;100.00;100468.59;4980100;28;20227;-78
2021/07/15 04:44:30;;;;;;;4.40;2.95;;;;;;;20.07;100.00;100470.97;4955054;28;20604;-77
2021/07/15 04:46:58;;;;;;;4.72;3.00;;;;;;;20.12;100.00;100468.00;4950579;28;20245;-78
2021/07/15 04:49:24;;;;;;;14.27;12.27;;;;;;;20.13;100.00;100475.16;4959064;28;20198;-80
2021/07/15 04:51:49;;;;;;;19.98;16.92;;;;;;;20.03;100.00;100464.53;4961248;28;20280;-77
2021/07/15 04:54:15;;;;;;;3.88;3.30;;;;;;;20.35;100.00;100472.81;4945629;28;20670;-78
2021/07/15 04:56:43;;;;;;;3.80;2.92;;;;;;;20.53;100.00;100464.00;4958300;28;20609;-78
2021/07/15 04:59:09;;;;;;;3.35;2.90;;;;;;;20.57;100.00;100464.13;4941754;28;20256;-78
2021/07/15 05:01:35;;;;;;;3.00;2.80;;;;;;;20.52;100.00;100467.09;4950040;28;20298;-78
2021/07/15 05:04:01;;;;;;;3.08;2.88;;;;;;;20.55;100.00;100472.75;4945515;28;20214;-78
2021/07/15 05:06:27;;;;;;;3.03;2.70;;;;;;;20.59;100.00;100468.16;4995012;28;20233;-78
2021/07/15 05:08:55;;;;;;;3.08;2.78;;;;;;;20.81;100.00;100470.50;4978303;28;20246;-80
2021/07/15 05:11:20;;;;;;;2.72;2.47;;;;;;;20.73;100.00;100462.31;4974201;28;20217;-76
2021/07/15 05:13:49;;;;;;;3.60;2.60;;;;;;;20.76;100.00;100456.94;4960110;28;20181;-77
2021/07/15 05:16:14;;;;;;;3.67;2.58;;;;;;;20.84;100.00;100458.75;4976708;28;20725;-78
2021/07/15 05:18:40;;;;;;;3.40;2.45;;;;;;;20.91;100.00;100467.28;4944691;28;20189;-78
2021/07/15 05:21:06;;;;;;;3.13;2.47;;;;;;;20.76;100.00;100465.22;4977577;28;20284;-79
2021/07/15 05:23:36;;;;;;;2.70;2.50;;;;;;;20.61;100.00;100460.31;4976355;28;20691;-78
2021/07/15 05:26:02;;;;;;;2.60;2.40;;;;;;;20.72;100.00;100461.53;4960099;28;20316;-78
2021/07/15 05:28:30;;;;;;;3.22;2.55;;;;;;;21.03;100.00;100456.25;4960765;28;20209;-79
2021/07/15 05:30:55;;;;;;;14.60;13.13;;;;;;;21.06;100.00;100467.44;4962242;28;20228;-78
2021/07/15 05:33:21;;;;;;;4.55;3.55;;;;;;;21.19;100.00;100471.81;4959088;28;20174;-78
2021/07/15 05:35:47;;;;;;;4.70;4.30;;;;;;;21.25;100.00;100479.50;4959244;28;20759;-78
2021/07/15 05:38:15;;;;;;;3.28;2.80;;;;;;;21.23;100.00;100483.75;4963037;28;20190;-78
2021/07/15 05:40:40;;;;;;;3.80;2.30;;;;;;;21.35;100.00;100479.00;4962379;28;20240;-78
2021/07/15 05:43:09;;;;;;;2.58;2.20;;;;;;;20.88;100.00;100471.56;4961907;28;20692;-77
2021/07/15 05:45:35;;;;;;;4.05;2.50;;;;;;;21.04;100.00;100475.25;4958339;28;20233;-79
2021/07/15 05:48:03;;;;;;;2.60;2.40;;;;;;;21.09;100.00;100466.72;4976622;28;20190;-77
2021/07/15 05:50:31;;;;;;;2.40;2.20;;;;;;;20.98;100.00;100470.28;4961207;28;20595;-77
2021/07/15 05:52:59;;;;;;;3.65;2.28;;;;;;;20.94;100.00;100464.66;4957578;28;20170;-78
2021/07/15 05:55:25;;;;;;;2.50;2.30;;;;;;;21.00;100.00;100468.78;4941291;28;20174;-79
2021/07/15 05:57:52;;;;;;;3.13;1.98;;;;;;;20.91;100.00;100487.47;4967833;28;20558;-77
2021/07/15 06:00:18;;;;;;;2.22;2.00;;;;;;;20.90;100.00;100488.59;4976709;28;20216;-79
2021/07/15 06:02:44;;;;;;;3.33;1.98;;;;;;;21.25;100.00;100476.72;4957144;28;20222;-77
2021/07/15 06:05:12;;;;;;;4.05;1.98;;;;;;;21.01;100.00;100488.94;4946027;28;20190;-77
2021/07/15 06:07:38;;;;;;;3.47;2.10;;;;;;;21.14;100.00;100505.19;4977673;28;20197;-79
2021/07/15 06:10:04;;;;;;;2.97;1.80;;;;;;;21.05;100.00;100493.44;4959669;28;20563;-78
2021/07/15 06:12:30;;;;;;;2.20;2.00;;;;;;;21.30;100.00;100495.84;4983877;28;20202;-78
2021/07/15 06:14:58;;;;;;;3.60;1.73;;;;;;;21.13;100.00;100508.28;4960944;28;20185;-77
2021/07/15 06:17:26;;;;;;;2.45;1.98;;;;;;;21.28;100.00;100508.38;4976713;28;20746;-77
2021/07/15 06:19:57;;;;;;;3.38;1.98;;;;;;;21.43;100.00;100499.44;4945840;28;20178;-78
2021/07/15 06:22:22;;;;;;;2.00;1.67;;;;;;;21.44;100.00;100496.31;4963977;28;20222;-78
2021/07/15 06:24:52;;;;;;;2.10;1.90;;;;;;;21.48;100.00;100502.78;4965688;28;20178;-78
2021/07/15 06:27:20;;;;;;;4.43;1.90;;;;;;;21.26;100.00;100511.53;4964827;28;20258;-79
2021/07/15 06:29:45;;;;;;;2.20;2.00;;;;;;;21.43;100.00;100525.13;4964875;28;20190;-77
2021/07/15 06:32:11;;;;;;;2.53;1.80;;;;;;;21.23;100.00;100517.72;4963717;28;20231;-77
2021/07/15 06:34:39;;;;;;;2.30;2.10;;;;;;;21.54;100.00;100517.97;4968687;28;20182;-79
2021/07/15 06:37:09;;;;;;;2.25;1.80;;;;;;;21.39;100.00;100510.38;4967372;28;20216;-79
2021/07/15 06:39:37;;;;;;;2.10;1.75;;;;;;;21.31;100.00;100519.56;4949227;28;20246;-78
2021/07/15 06:42:05;;;;;;;2.25;1.92;;;;;;;21.26;100.00;100518.97;4981163;28;20318;-78
2021/07/15 06:44:31;;;;;;;2.00;1.90;;;;;;;21.19;100.00;100520.72;4982692;28;20201;-78
2021/07/15 06:46:56;;;;;;;2.20;2.00;;;;;;;21.21;100.00;100513.72;5012533;28;20224;-78
2021/07/15 06:49:25;;;;;;;2.50;1.90;;;;;;;21.49;100.00;100515.44;4997848;28;20280;-79
2021/07/15 06:51:52;;;;;;;2.53;1.92;;;;;;;21.68;100.00;100524.75;4981245;28;20213;-78
2021/07/15 06:54:18;;;;;;;2.55;1.70;;;;;;;22.17;100.00;100538.13;4967531;28;20228;-79
2021/07/15 06:56:44;;;;;;;2.80;1.70;;;;;;;22.43;100.00;100541.25;4987663;28;20221;-78
2021/07/15 06:59:10;;;;;;;3.38;1.90;;;;;;;22.31;100.00;100549.63;4970013;28;20190;-79
2021/07/15 07:01:35;;;;;;;2.38;1.60;;;;;;;22.25;100.00;100545.50;4979134;28;20726;-79
2021/07/15 07:04:05;;;;;;;1.70;1.60;;;;;;;22.60;100.00;100552.84;4956614;28;20213;-79
2021/07/15 07:06:33;;;;;;;2.05;1.63;;;;;;;23.10;100.00;100545.53;4963496;28;20288;-78
2021/07/15 07:09:01;;;;;;;2.70;1.70;;;;;;;23.07;100.00;100549.00;4958286;28;20224;-79
2021/07/15 07:11:29;;;;;;;3.55;1.75;;;;;;;23.04;100.00;100548.91;4970183;28;20232;-78
2021/07/15 07:13:54;;;;;;;1.75;1.63;;;;;;;23.07;100.00;100551.78;4963438;28;20231;-79
2021/07/15 07:16:20;;;;;;;1.50;1.40;;;;;;;23.78;100.00;100544.84;4946565;28;20221;-79
2021/07/15 07:18:45;;;;;;;2.47;1.60;;;;;;;23.62;100.00;100549.63;4974675;28;20191;-78
2021/07/15 07:21:18;;;;;;;2.65;1.75;;;;;;;23.10;100.00;100556.59;4959922;28;20218;-77
2021/07/15 07:23:47;;;;;;;2.78;1.40;;;;;;;23.61;100.00;100537.72;4952347;28;20213;-78
2021/07/15 07:26:17;;;;;;;2.30;1.48;;;;;;;23.89;100.00;100540.34;4996103;28;20711;-79
2021/07/15 07:28:43;;;;;;;1.50;1.40;;;;;;;23.73;100.00;100539.56;4959749;28;20250;-78
2021/07/15 07:31:08;;;;;;;1.80;1.70;;;;;;;23.57;100.00;100545.13;4958089;28;20226;-78
2021/07/15 07:33:37;;;;;;;1.95;1.85;;;;;;;23.23;100.00;100547.03;4950282;28;20178;-79
2021/07/15 07:36:08;;;;;;;1.65;1.55;;;;;;;23.07;100.00;100546.22;4980248;28;20225;-78
2021/07/15 07:38:36;;;;;;;1.88;1.73;;;;;;;23.07;100.00;100546.22;4965658;28;20182;-79
2021/07/15 07:41:04;;;;;;;1.80;1.70;;;;;;;23.04;100.00;100557.22;4982503;28;20303;-77
2021/07/15 07:43:37;;;;;;;1.95;1.85;;;;;;;22.82;100.00;100550.28;4981707;28;20211;-79
2021/07/15 07:46:04;;;;;;;1.50;1.40;;;;;;;23.62;99.85;100535.75;4963697;28;20250;-78
2021/07/15 07:48:31;;;;;;;1.63;1.50;;;;;;;24.35;96.15;100545.75;4963893;28;20189;-78
2021/07/15 07:51:00;;;;;;;1.63;1.30;;;;;;;24.83;93.86;100535.59;4963174;28;20248;-80
2021/07/15 07:53:30;;;;;;;2.10;1.65;;;;;;;24.66;90.51;100547.19;4964378;28;20206;-79
2021/07/15 07:55:56;;;;;;;2.55;1.13;;;;;;;25.17;88.97;100549.38;4963892;28;20243;-79
2021/07/15 07:58:22;;;;;;;2.00;1.00;;;;;;;25.08;86.61;100556.34;4946826;28;20201;-80
2021/07/15 08:00:51;;;;;;;1.15;0.80;;;;;;;24.70;83.56;100566.72;4978091;28;20250;-78
2021/07/15 08:03:20;;;;;;;0.70;0.60;;;;;;;24.34;82.53;100560.78;4944046;28;20641;-79
2021/07/15 08:05:46;;;;;;;0.80;0.80;;;;;;;24.55;80.26;100565.63;4957852;28;20795;-78
2021/07/15 08:08:17;;;;;;;0.70;0.70;;;;;;;24.51;78.98;100564.75;4947418;28;20562;-79
2021/07/15 08:10:43;;;;;;;1.70;0.93;;;;;;;24.71;82.23;100569.13;4995759;28;20225;-78
2021/07/15 08:13:09;;;;;;;1.85;0.80;;;;;;;24.64;83.76;100573.75;4985874;28;20186;-78
2021/07/15 08:15:37;;;;;;;1.35;1.20;;;;;;;24.55;84.85;100573.94;4978729;28;20248;-78
2021/07/15 08:18:03;;;;;;;1.00;1.00;;;;;;;24.72;80.75;100576.28;5005278;28;20204;-78
2021/07/15 08:20:30;;;;;;;1.13;1.00;;;;;;;25.17;79.79;100577.19;4973076;28;20240;-78
2021/07/15 08:22:56;;;;;;;1.17;0.70;;;;;;;24.32;82.83;100566.72;4954632;28;20202;-78
2021/07/15 08:25:23;;;;;;;0.70;0.70;;;;;;;24.15;88.70;100581.00;4993159;28;20186;-76
2021/07/15 08:27:49;;;;;;;0.93;0.90;;;;;;;24.10;88.22;100567.41;4961144;28;20297;-77
2021/07/15 08:30:15;;;;;;;1.83;1.00;;;;;;;23.54;87.82;100577.53;4960576;28;20220;-78
2021/07/15 08:32:44;;;;;;;0.70;0.70;;;;;;;23.07;92.96;100590.56;4994808;28;20201;-78
2021/07/15 08:35:09;;;;;;;0.85;0.70;;;;;;;23.69;90.57;100575.56;4977818;28;20224;-77
2021/07/15 08:37:37;;;;;;;1.08;0.98;;;;;;;23.90;86.30;100567.75;4948079;28;20184;-78
2021/07/15 08:40:04;;;;;;;0.98;0.88;;;;;;;24.54;83.47;100568.75;4978191;28;20182;-78
2021/07/15 08:42:29;;;;;;;2.03;0.90;;;;;;;24.53;86.43;100573.50;4968203;28;20218;-78
2021/07/15 08:44:58;;;;;;;0.80;0.80;;;;;;;24.18;82.44;100585.03;4962010;28;20188;-78
2021/07/15 08:47:24;;;;;;;0.70;0.70;;;;;;;24.47;86.64;100585.31;4977809;28;20572;-78
2021/07/15 08:49:51;;;;;;;1.00;0.80;;;;;;;24.73;80.15;100586.22;4963526;28;20184;-79
2021/07/15 08:52:17;;;;;;;0.70;0.70;;;;;;;25.07;78.80;100588.09;4962728;28;20222;-79
2021/07/15 08:57:29;;;;;;;0.88;0.80;;;;;;;24.89;83.73;100589.69;4964096;28;20229;-79
2021/07/15 08:59:57;;;;;;;0.70;0.70;;;;;;;24.59;80.38;100593.47;4994609;28;20182;-79
2021/07/15 09:02:22;;;;;;;0.98;0.90;;;;;;;24.12;82.02;100597.56;4945994;28;20237;-79
2021/07/15 09:04:50;;;;;;;1.10;0.90;;;;;;;24.17;83.75;100597.28;4963309;28;20185;-78
2021/07/15 09:07:17;;;;;;;1.52;0.88;;;;;;;24.21;84.41;100595.41;4961649;28;20252;-77
2021/07/15 09:09:45;;;;;;;1.38;0.90;;;;;;;24.35;86.48;100592.97;4962092;28;20174;-78
2021/07/15 09:12:14;;;;;;;1.33;0.98;;;;;;;24.56;82.35;100595.03;4966202;28;20214;-78
2021/07/15 09:14:48;;;;;;;0.80;0.80;;;;;;;24.60;82.54;100601.44;4972807;28;20674;-77
2021/07/15 09:17:25;;;;;;;0.60;0.60;;;;;;;24.34;84.20;100608.00;4963444;28;20229;-78
2021/07/15 09:19:55;;;;;;;1.45;1.00;;;;;;;24.50;84.52;100599.25;4962406;28;20188;-79
2021/07/15 09:22:23;;;;;;;1.50;0.82;;;;;;;24.47;84.30;100604.75;4949319;28;20222;-77
2021/07/15 09:24:52;;;;;;;0.70;0.70;;;;;;;24.58;82.12;100598.25;4979798;28;20228;-78
2021/07/15 09:27:21;;;;;;;0.95;0.70;;;;;;;23.94;81.85;100604.72;4974307;28;20741;-78
2021/07/15 09:30:15;;;;;;;0.90;0.80;;;;;;;24.13;80.63;100601.97;4960980;28;20207;-78
2021/07/15 09:33:06;;;;;;;1.13;0.88;;;;;;;24.67;76.78;100598.00;4959288;28;20218;-79
2021/07/15 09:35:38;;;;;;;0.80;0.80;;;;;;;25.47;79.06;100598.34;4932650;28;20275;-79
2021/07/15 09:38:25;;;;;;;0.73;0.70;;;;;;;25.75;74.69;100594.09;4963167;28;20380;-78
2021/07/15 09:40:59;;;;;;;0.95;0.90;;;;;;;26.16;74.32;100593.13;4962704;28;20282;-78
2021/07/15 09:43:29;;;;;;;1.42;1.10;;;;;;;26.31;71.42;100598.53;4964207;28;20213;-77
2021/07/15 09:46:00;;;;;;;0.98;0.90;;;;;;;26.16;72.27;100598.69;4961317;28;20220;-78
2021/07/15 09:48:27;;;;;;;1.17;0.90;;;;;;;26.70;73.58;100593.09;4977059;28;20213;-76
2021/07/15 09:50:56;;;;;;;1.42;0.77;;;;;;;25.87;73.04;100595.88;4955751;28;20246;-77
2021/07/15 09:53:25;;;;;;;1.20;1.08;;;;;;;26.22;70.35;100586.88;4941203;28;20189;-77
2021/07/15 09:56:11;;;;;;;1.10;0.90;;;;;;;26.25;72.66;100586.13;4961560;28;20213;-77
2021/07/15 09:58:38;;;;;;;1.08;1.02;;;;;;;26.60;69.54;100581.00;4963739;28;20256;-77
2021/07/15 10:01:10;;;;;;;0.70;0.70;;;;;;;26.07;71.66;100579.47;4948071;28;20233;-78
2021/07/15 10:03:37;;;;;;;0.70;0.70;;;;;;;26.02;69.52;100588.13;4964456;28;20209;-77
2021/07/15 10:06:03;;;;;;;1.63;0.90;;;;;;;25.55;70.92;100589.78;4965094;28;20218;-77
2021/07/15 10:08:35;;;;;;;1.27;0.90;;;;;;;25.65;71.91;100582.81;4963746;28;20182;-77
2021/07/15 10:11:16;;;;;;;2.22;0.90;;;;;;;26.12;69.56;100581.94;4966653;28;20253;-77
2021/07/15 10:13:42;;;;;;;0.82;0.73;;;;;;;26.32;71.63;100575.09;4979393;28;20182;-77
2021/07/15 10:16:12;;;;;;;0.80;0.80;;;;;;;26.02;69.04;100576.19;4977834;28;20214;-76
2021/07/15 10:18:39;;;;;;;0.80;0.80;;;;;;;25.36;70.59;100571.53;4960787;28;20365;-77
2021/07/15 10:21:06;;;;;;;1.05;0.60;;;;;;;25.27;75.26;100571.81;4961445;28;20213;-77
2021/07/15 10:23:39;;;;;;;1.50;0.70;;;;;;;26.26;69.35;100570.19;4967874;28;20213;-77
2021/07/15 10:26:08;;;;;;;0.80;0.80;;;;;;;26.93;69.64;100587.41;4963890;28;20217;-78
2021/07/15 10:28:34;;;;;;;4.13;0.88;;;;;;;26.81;67.29;100591.22;4962579;28;20276;-78
2021/07/15 10:31:03;;;;;;;0.80;0.80;;;;;;;27.59;70.73;100586.88;4944141;28;20765;-77
2021/07/15 10:33:29;;;;;;;0.90;0.88;;;;;;;27.41;65.47;100589.88;4940376;28;20186;-78
2021/07/15 10:35:58;;;;;;;2.33;1.25;;;;;;;27.01;64.63;100570.34;4977391;28;20272;-77
2021/07/15 10:38:24;;;;;;;1.58;0.90;;;;;;;26.52;66.32;100593.22;4957364;28;20194;-78
2021/07/15 10:40:54;;;;;;;0.95;0.80;;;;;;;25.87;70.95;100590.31;4931480;28;20228;-76
2021/07/15 10:43:20;;;;;;;1.38;0.82;;;;;;;26.03;70.71;100584.19;4959769;28;20220;-77
2021/07/15 10:45:46;;;;;;;1.85;0.90;;;;;;;26.71;69.70;100591.88;4976727;28;20213;-77
2021/07/15 10:48:14;;;;;;;1.85;1.02;;;;;;;27.42;64.95;100589.50;4959576;28;20269;-78
2021/07/15 10:50:40;;;;;;;1.27;1.00;;;;;;;27.25;63.10;100600.47;4944819;28;20652;-78
2021/07/15 10:53:06;;;;;;;2.53;1.10;;;;;;;27.30;61.67;100611.28;4957582;28;20269;-77
2021/07/15 10:55:34;;;;;;;1.05;0.95;;;;;;;27.44;65.42;100603.09;4962141;28;20714;-76
2021/07/15 10:57:59;;;;;;;1.00;0.90;;;;;;;27.16;63.49;100594.41;4972882;28;20278;-75
2021/07/15 11:00:28;;;;;;;1.50;0.80;;;;;;;27.61;63.32;100601.25;4956858;28;20719;-76
2021/07/15 11:03:21;;;;;;;0.82;0.82;;;;;;;28.31;59.84;100608.97;4969205;28;20267;-77
2021/07/15 11:05:51;;;;;;;1.30;1.10;;;;;;;28.46;56.21;100612.63;4961394;28;20248;-77
2021/07/15 11:08:19;;;;;;;1.00;1.00;;;;;;;28.84;59.54;100604.41;4973774;28;20245;-76
2021/07/15 11:11:01;;;;;;;1.65;0.80;;;;;;;28.63;57.78;100621.13;4945741;28;20284;-77
2021/07/15 11:13:27;;;;;;;1.13;0.95;;;;;;;28.88;57.86;100625.66;4954100;28;20193;-78
2021/07/15 11:15:55;;;;;;;1.25;1.15;;;;;;;28.22;58.71;100626.47;4976378;28;20221;-78
2021/07/15 11:18:48;;;;;;;1.20;1.00;;;;;;;28.67;58.93;100616.34;4959845;28;20193;-78
2021/07/15 11:21:26;;;;;;;1.35;1.02;;;;;;;28.21;57.32;100627.66;4957009;28;20226;-78
2021/07/15 11:24:04;;;;;;;1.92;1.15;;;;;;;28.13;60.65;100620.41;4990855;28;20213;-77
2021/07/15 11:26:42;;;;;;;1.13;1.13;;;;;;;27.53;61.55;100619.13;4977400;28;20244;-76
2021/07/15 11:29:12;;;;;;;0.88;0.88;;;;;;;27.69;62.49;100624.44;4972094;28;20190;-77